sensor_id;sensor_type;location;lat;lon;timestamp;pressure;altitude;pressure_sealevel;temperature;humidity
57628;BME280;43451;49.060;10.616;2022-09-11T00:00:35;96719.19;;;14.04;100.00
57628;BME280;43451;49.060;10.616;2022-09-11T00:03:00;96716.91;;;14.03;100.00
57628;BME280;43451;49.060;10.616;2022-09-11T00:05:25;96709.94;;;13.98;100.00
57628;BME280;43451;49.060;10.616;2022-09-11T00:07:52;96715.56;;;13.87;100.00
57628;BME280;43451;49.060;10.616;2022-09-11T00:10:17;96720.09;;;13.98;100.00
57628;BME280;43451;49.060;10.616;2022-09-11T00:12:43;96713.84;;;13.97;100.00
57628;BME280;43451;49.060;10.616;2022-09-11T00:15:09;96716.91;;;14.03;100.00
57628;BME280;43451;49.060;10.616;2022-09-11T00:17:35;96714.94;;;14.03;100.00
57628;BME280;43451;49.060;10.616;2022-09-11T00:20:02;96711.94;;;13.94;100.00
57628;BME280;43451;49.060;10.616;2022-09-11T00:22:28;96711.13;;;13.97;100.00
57628;BME280;43451;49.060;10.616;2022-09-11T00:24:54;96707.75;;;13.89;100.00
57628;BME280;43451;49.060;10.616;2022-09-11T00:27:20;96703.50;;;13.85;100.00
57628;BME280;43451;49.060;10.616;2022-09-11T00:29:45;96705.84;;;13.86;100.00
57628;BME280;43451;49.060;10.616;2022-09-11T00:32:11;96706.41;;;13.74;100.00
57628;BME280;43451;49.060;10.616;2022-09-11T00:34:36;96715.69;;;13.80;100.00
57628;BME280;43451;49.060;10.616;2022-09-11T00:37:04;96711.38;;;13.79;100.00
57628;BME280;43451;49.060;10.616;2022-09-11T00:39:29;96699.75;;;13.75;100.00
57628;BME280;43451;49.060;10.616;2022-09-11T00:41:55;96704.84;;;13.73;100.00
57628;BME280;43451;49.060;10.616;2022-09-11T00:47:00;96704.22;;;13.89;100.00
57628;BME280;43451;49.060;10.616;2022-09-11T00:49:50;96705.09;;;13.82;100.00
57628;BME280;43451;49.060;10.616;2022-09-11T00:52:27;96703.09;;;13.86;100.00
57628;BME280;43451;49.060;10.616;2022-09-11T00:55:03;96700.78;;;13.85;100.00
57628;BME280;43451;49.060;10.616;2022-09-11T00:57:42;96694.53;;;13.84;100.00
57628;BME280;43451;49.060;10.616;2022-09-11T01:00:10;96693.66;;;13.91;100.00
57628;BME280;43451;49.060;10.616;2022-09-11T01:02:37;96699.88;;;13.91;100.00
57628;BME280;43451;49.060;10.616;2022-09-11T01:05:04;96699.19;;;13.87;100.00
57628;BME280;43451;49.060;10.616;2022-09-11T01:07:30;96695.38;;;13.81;100.00
57628;BME280;43451;49.060;10.616;2022-09-11T01:09:57;96692.38;;;13.72;100.00
57628;BME280;43451;49.060;10.616;2022-09-11T01:12:27;96688.94;;;13.68;100.00
57628;BME280;43451;49.060;10.616;2022-09-11T01:15:07;96683.69;;;13.81;100.00
57628;BME280;43451;49.060;10.616;2022-09-11T01:23:31;96686.34;;;13.84;100.00
57628;BME280;43451;49.060;10.616;2022-09-11T01:32:28;96679.47;;;14.00;100.00
57628;BME280;43451;49.060;10.616;2022-09-11T01:37:32;96676.97;;;13.85;100.00
57628;BME280;43451;49.060;10.616;2022-09-11T01:40:08;96679.25;;;13.90;100.00
57628;BME280;43451;49.060;10.616;2022-09-11T01:42:36;96673.41;;;13.88;100.00
57628;BME280;43451;49.060;10.616;2022-09-11T01:45:08;96675.78;;;13.86;100.00
57628;BME280;43451;49.060;10.616;2022-09-11T01:47:36;96671.09;;;13.87;100.00
57628;BME280;43451;49.060;10.616;2022-09-11T01:50:09;96671.09;;;13.87;100.00
57628;BME280;43451;49.060;10.616;2022-09-11T01:52:47;96665.22;;;13.88;100.00
57628;BME280;43451;49.060;10.616;2022-09-11T01:55:30;96661.00;;;13.84;100.00
57628;BME280;43451;49.060;10.616;2022-09-11T01:58:07;96660.25;;;13.83;100.00
57628;BME280;43451;49.060;10.616;2022-09-11T02:00:34;96664.50;;;13.84;100.00
57628;BME280;43451;49.060;10.616;2022-09-11T02:03:08;96665.78;;;13.76;100.00
57628;BME280;43451;49.060;10.616;2022-09-11T02:05:42;96658.09;;;13.71;100.00
57628;BME280;43451;49.060;10.616;2022-09-11T02:08:16;96652.81;;;13.84;100.00
57628;BME280;43451;49.060;10.616;2022-09-11T02:10:50;96655.59;;;13.80;100.00
57628;BME280;43451;49.060;10.616;2022-09-11T02:13:23;96663.06;;;13.76;100.00
57628;BME280;43451;49.060;10.616;2022-09-11T02:15:58;96660.69;;;13.78;100.00
57628;BME280;43451;49.060;10.616;2022-09-11T02:18:39;96654.78;;;13.83;100.00
57628;BME280;43451;49.060;10.616;2022-09-11T02:21:05;96648.94;;;13.81;100.00
57628;BME280;43451;49.060;10.616;2022-09-11T02:23:31;96647.88;;;13.75;100.00
57628;BME280;43451;49.060;10.616;2022-09-11T02:25:56;96651.63;;;13.85;100.00
57628;BME280;43451;49.060;10.616;2022-09-11T02:28:22;96643.13;;;13.79;100.00
57628;BME280;43451;49.060;10.616;2022-09-11T02:30:49;96657.59;;;13.76;100.00
57628;BME280;43451;49.060;10.616;2022-09-11T02:33:35;96653.38;;;13.72;100.00
57628;BME280;43451;49.060;10.616;2022-09-11T02:39:00;96650.66;;;13.72;100.00
57628;BME280;43451;49.060;10.616;2022-09-11T02:44:36;96656.28;;;13.61;100.00
57628;BME280;43451;49.060;10.616;2022-09-11T02:55:10;96664.44;;;13.64;100.00
57628;BME280;43451;49.060;10.616;2022-09-11T02:57:51;96658.53;;;13.66;100.00
57628;BME280;43451;49.060;10.616;2022-09-11T03:00:19;96660.19;;;13.60;100.00
57628;BME280;43451;49.060;10.616;2022-09-11T03:02:46;96666.84;;;13.59;100.00
57628;BME280;43451;49.060;10.616;2022-09-11T03:05:12;96658.66;;;13.59;100.00
57628;BME280;43451;49.060;10.616;2022-09-11T03:07:37;96664.81;;;13.63;100.00
57628;BME280;43451;49.060;10.616;2022-09-11T03:10:03;96660.13;;;13.63;100.00
57628;BME280;43451;49.060;10.616;2022-09-11T03:12:29;96665.91;;;13.69;100.00
57628;BME280;43451;49.060;10.616;2022-09-11T03:14:54;96656.88;;;13.72;100.00
57628;BME280;43451;49.060;10.616;2022-09-11T03:17:21;96662.84;;;13.67;100.00
57628;BME280;43451;49.060;10.616;2022-09-11T03:19:47;96657.38;;;13.67;100.00
57628;BME280;43451;49.060;10.616;2022-09-11T03:22:13;96665.44;;;13.74;100.00
57628;BME280;43451;49.060;10.616;2022-09-11T03:24:39;96658.78;;;13.75;100.00
57628;BME280;43451;49.060;10.616;2022-09-11T03:27:04;96661.88;;;13.77;100.00
57628;BME280;43451;49.060;10.616;2022-09-11T03:29:30;96662.72;;;13.74;100.00
57628;BME280;43451;49.060;10.616;2022-09-11T03:31:56;96668.63;;;13.69;100.00
57628;BME280;43451;49.060;10.616;2022-09-11T03:34:23;96653.44;;;13.68;100.00
57628;BME280;43451;49.060;10.616;2022-09-11T03:36:49;96650.72;;;13.68;100.00
57628;BME280;43451;49.060;10.616;2022-09-11T03:39:14;96659.56;;;13.76;100.00
57628;BME280;43451;49.060;10.616;2022-09-11T03:41:40;96663.50;;;13.75;100.00
57628;BME280;43451;49.060;10.616;2022-09-11T03:44:05;96663.50;;;13.75;100.00
57628;BME280;43451;49.060;10.616;2022-09-11T03:46:30;96661.97;;;13.70;100.00
57628;BME280;43451;49.060;10.616;2022-09-11T03:48:57;96661.22;;;13.69;100.00
57628;BME280;43451;49.060;10.616;2022-09-11T03:51:23;96668.28;;;13.67;100.00
57628;BME280;43451;49.060;10.616;2022-09-11T03:53:50;96669.41;;;13.69;100.00
57628;BME280;43451;49.060;10.616;2022-09-11T03:56:16;96669.81;;;13.68;100.00
57628;BME280;43451;49.060;10.616;2022-09-11T03:58:42;96668.69;;;13.65;100.00
57628;BME280;43451;49.060;10.616;2022-09-11T04:01:12;96671.03;;;13.67;100.00
57628;BME280;43451;49.060;10.616;2022-09-11T04:03:38;96664.44;;;13.64;100.00
57628;BME280;43451;49.060;10.616;2022-09-11T04:06:04;96674.91;;;13.66;100.00
57628;BME280;43451;49.060;10.616;2022-09-11T04:08:30;96672.97;;;13.66;100.00
57628;BME280;43451;49.060;10.616;2022-09-11T04:11:00;96675.22;;;13.72;100.00
57628;BME280;43451;49.060;10.616;2022-09-11T04:13:28;96659.56;;;13.76;100.00
57628;BME280;43451;49.060;10.616;2022-09-11T04:15:58;96667.81;;;13.72;100.00
57628;BME280;43451;49.060;10.616;2022-09-11T04:18:23;96671.94;;;13.84;100.00
57628;BME280;43451;49.060;10.616;2022-09-11T04:20:49;96675.00;;;13.86;100.00
57628;BME280;43451;49.060;10.616;2022-09-11T04:23:14;96676.75;;;13.73;100.00
57628;BME280;43451;49.060;10.616;2022-09-11T04:25:40;96683.25;;;13.82;100.00
57628;BME280;43451;49.060;10.616;2022-09-11T04:28:05;96690.56;;;13.89;100.00
57628;BME280;43451;49.060;10.616;2022-09-11T04:30:34;96685.47;;;13.91;100.00
57628;BME280;43451;49.060;10.616;2022-09-11T04:33:03;96684.50;;;13.78;100.00
57628;BME280;43451;49.060;10.616;2022-09-11T04:35:30;96686.78;;;13.83;100.00
57628;BME280;43451;49.060;10.616;2022-09-11T04:37:56;96678.34;;;13.97;100.00
57628;BME280;43451;49.060;10.616;2022-09-11T04:40:21;96692.53;;;13.88;100.00
57628;BME280;43451;49.060;10.616;2022-09-11T04:42:47;96692.63;;;13.81;100.00
57628;BME280;43451;49.060;10.616;2022-09-11T04:45:12;96692.47;;;13.92;100.00
57628;BME280;43451;49.060;10.616;2022-09-11T04:47:38;96702.28;;;13.89;100.00
57628;BME280;43451;49.060;10.616;2022-09-11T04:50:05;96700.47;;;13.79;100.00
57628;BME280;43451;49.060;10.616;2022-09-11T04:52:31;96706.19;;;13.88;100.00
57628;BME280;43451;49.060;10.616;2022-09-11T04:54:58;96710.50;;;13.86;100.00
57628;BME280;43451;49.060;10.616;2022-09-11T04:57:24;96713.97;;;13.90;100.00
57628;BME280;43451;49.060;10.616;2022-09-11T04:59:50;96714.84;;;13.83;100.00
57628;BME280;43451;49.060;10.616;2022-09-11T05:02:17;96710.09;;;13.87;100.00
57628;BME280;43451;49.060;10.616;2022-09-11T05:04:42;96721.03;;;13.87;100.00
57628;BME280;43451;49.060;10.616;2022-09-11T05:07:07;96721.69;;;13.95;100.00
57628;BME280;43451;49.060;10.616;2022-09-11T05:09:33;96719.84;;;13.88;100.00
57628;BME280;43451;49.060;10.616;2022-09-11T05:11:59;96733.41;;;13.96;100.00
57628;BME280;43451;49.060;10.616;2022-09-11T05:14:27;96730.25;;;13.97;100.00
57628;BME280;43451;49.060;10.616;2022-09-11T05:16:53;96734.69;;;13.87;100.00
57628;BME280;43451;49.060;10.616;2022-09-11T05:19:20;96739.06;;;13.81;100.00
57628;BME280;43451;49.060;10.616;2022-09-11T05:21:45;96732.78;;;13.84;100.00
57628;BME280;43451;49.060;10.616;2022-09-11T05:24:11;96736.59;;;13.90;100.00
57628;BME280;43451;49.060;10.616;2022-09-11T05:26:36;96753.16;;;13.76;100.00
57628;BME280;43451;49.060;10.616;2022-09-11T05:29:04;96739.16;;;13.74;100.00
57628;BME280;43451;49.060;10.616;2022-09-11T05:31:32;96748.50;;;13.77;100.00
57628;BME280;43451;49.060;10.616;2022-09-11T05:33:57;96758.13;;;13.85;100.00
57628;BME280;43451;49.060;10.616;2022-09-11T05:36:25;96753.28;;;13.96;100.00
57628;BME280;43451;49.060;10.616;2022-09-11T05:38:51;96766.56;;;13.94;100.00
57628;BME280;43451;49.060;10.616;2022-09-11T05:41:17;96764.66;;;13.91;100.00
57628;BME280;43451;49.060;10.616;2022-09-11T05:43:43;96765.44;;;13.91;100.00
57628;BME280;43451;49.060;10.616;2022-09-11T05:46:11;96773.75;;;13.84;100.00
57628;BME280;43451;49.060;10.616;2022-09-11T05:48:37;96778.47;;;13.80;100.00
57628;BME280;43451;49.060;10.616;2022-09-11T05:51:07;96777.19;;;13.88;100.00
57628;BME280;43451;49.060;10.616;2022-09-11T05:53:35;96773.69;;;13.88;100.00
57628;BME280;43451;49.060;10.616;2022-09-11T05:56:12;96776.53;;;13.81;100.00
57628;BME280;43451;49.060;10.616;2022-09-11T05:58:38;96786.13;;;13.92;100.00
57628;BME280;43451;49.060;10.616;2022-09-11T06:01:05;96781.13;;;13.87;100.00
57628;BME280;43451;49.060;10.616;2022-09-11T06:03:33;96781.06;;;13.91;100.00
57628;BME280;43451;49.060;10.616;2022-09-11T06:05:59;96791.81;;;14.02;100.00
57628;BME280;43451;49.060;10.616;2022-09-11T06:08:25;96795.03;;;13.97;100.00
57628;BME280;43451;49.060;10.616;2022-09-11T06:10:51;96795.03;;;13.97;100.00
57628;BME280;43451;49.060;10.616;2022-09-11T06:13:16;96799.56;;;14.07;100.00
57628;BME280;43451;49.060;10.616;2022-09-11T06:15:48;96797.72;;;14.00;100.00
57628;BME280;43451;49.060;10.616;2022-09-11T06:18:16;96809.00;;;14.02;100.00
57628;BME280;43451;49.060;10.616;2022-09-11T06:20:42;96807.38;;;14.05;100.00
57628;BME280;43451;49.060;10.616;2022-09-11T06:23:09;96817.88;;;14.10;100.00
57628;BME280;43451;49.060;10.616;2022-09-11T06:25:35;96814.38;;;14.09;100.00
57628;BME280;43451;49.060;10.616;2022-09-11T06:28:01;96822.97;;;14.08;100.00
57628;BME280;43451;49.060;10.616;2022-09-11T06:30:27;96817.09;;;14.09;100.00
57628;BME280;43451;49.060;10.616;2022-09-11T06:32:52;96823.84;;;14.28;100.00
57628;BME280;43451;49.060;10.616;2022-09-11T06:35:21;96808.53;;;14.34;100.00
57628;BME280;43451;49.060;10.616;2022-09-11T06:37:48;96817.06;;;14.36;100.00
57628;BME280;43451;49.060;10.616;2022-09-11T06:40:13;96824.63;;;14.29;100.00
57628;BME280;43451;49.060;10.616;2022-09-11T06:42:39;96825.75;;;14.31;100.00
57628;BME280;43451;49.060;10.616;2022-09-11T06:45:05;96834.31;;;14.33;100.00
57628;BME280;43451;49.060;10.616;2022-09-11T06:47:31;96830.03;;;14.32;100.00
57628;BME280;43451;49.060;10.616;2022-09-11T06:49:56;96841.72;;;14.33;100.00
57628;BME280;43451;49.060;10.616;2022-09-11T06:52:22;96842.16;;;14.31;100.00
57628;BME280;43451;49.060;10.616;2022-09-11T06:54:47;96839.78;;;14.33;100.00
57628;BME280;43451;49.060;10.616;2022-09-11T06:57:14;96849.59;;;14.31;100.00
57628;BME280;43451;49.060;10.616;2022-09-11T06:59:40;96846.22;;;14.47;100.00
57628;BME280;43451;49.060;10.616;2022-09-11T07:04:34;96850.94;;;14.46;100.00
57628;BME280;43451;49.060;10.616;2022-09-11T07:07:00;96850.63;;;14.40;100.00
57628;BME280;43451;49.060;10.616;2022-09-11T07:09:25;96854.78;;;14.49;100.00
57628;BME280;43451;49.060;10.616;2022-09-11T07:11:51;96856.81;;;14.45;100.00
57628;BME280;43451;49.060;10.616;2022-09-11T07:14:16;96874.69;;;14.53;100.00
57628;BME280;43451;49.060;10.616;2022-09-11T07:16:47;96862.97;;;14.49;100.00
57628;BME280;43451;49.060;10.616;2022-09-11T07:19:13;96870.75;;;14.54;100.00
57628;BME280;43451;49.060;10.616;2022-09-11T07:21:39;96859.00;;;14.57;100.00
57628;BME280;43451;49.060;10.616;2022-09-11T07:24:04;96869.16;;;14.56;100.00
57628;BME280;43451;49.060;10.616;2022-09-11T07:26:30;96876.53;;;14.59;100.00
57628;BME280;43451;49.060;10.616;2022-09-11T07:28:57;96878.38;;;14.66;100.00
57628;BME280;43451;49.060;10.616;2022-09-11T07:31:25;96876.81;;;14.65;100.00
57628;BME280;43451;49.060;10.616;2022-09-11T07:33:53;96879.81;;;14.74;100.00
57628;BME280;43451;49.060;10.616;2022-09-11T07:36:21;96882.13;;;14.76;100.00
57628;BME280;43451;49.060;10.616;2022-09-11T07:38:47;96884.38;;;14.81;100.00
57628;BME280;43451;49.060;10.616;2022-09-11T07:41:15;96887.91;;;14.81;100.00
57628;BME280;43451;49.060;10.616;2022-09-11T07:43:41;96894.09;;;14.85;100.00
57628;BME280;43451;49.060;10.616;2022-09-11T07:46:10;96892.06;;;14.90;100.00
57628;BME280;43451;49.060;10.616;2022-09-11T07:48:36;96890.41;;;14.96;100.00
57628;BME280;43451;49.060;10.616;2022-09-11T07:51:05;96900.41;;;15.06;100.00
57628;BME280;43451;49.060;10.616;2022-09-11T07:53:32;96913.38;;;15.02;100.00
57628;BME280;43451;49.060;10.616;2022-09-11T07:56:07;96905.34;;;15.15;100.00
57628;BME280;43451;49.060;10.616;2022-09-11T07:58:33;96913.50;;;15.18;100.00
57628;BME280;43451;49.060;10.616;2022-09-11T08:01:00;96913.34;;;15.25;100.00
57628;BME280;43451;49.060;10.616;2022-09-11T08:03:28;96915.69;;;15.27;100.00
57628;BME280;43451;49.060;10.616;2022-09-11T08:06:00;96922.72;;;15.28;100.00
57628;BME280;43451;49.060;10.616;2022-09-11T08:08:26;96921.09;;;15.30;100.00
57628;BME280;43451;49.060;10.616;2022-09-11T08:10:56;96922.06;;;15.20;100.00
57628;BME280;43451;49.060;10.616;2022-09-11T08:13:26;96927.03;;;15.25;100.00
57628;BME280;43451;49.060;10.616;2022-09-11T08:15:51;96936.81;;;15.26;100.00
57628;BME280;43451;49.060;10.616;2022-09-11T08:18:17;96927.41;;;15.27;100.00
57628;BME280;43451;49.060;10.616;2022-09-11T08:20:42;96936.06;;;15.26;100.00
57628;BME280;43451;49.060;10.616;2022-09-11T08:23:09;96938.00;;;15.25;100.00
57628;BME280;43451;49.060;10.616;2022-09-11T08:25:36;96940.84;;;15.18;100.00
57628;BME280;43451;49.060;10.616;2022-09-11T08:28:02;96946.50;;;15.31;100.00
57628;BME280;43451;49.060;10.616;2022-09-11T08:30:28;96950.16;;;15.24;100.00
57628;BME280;43451;49.060;10.616;2022-09-11T08:32:53;96956.16;;;15.16;100.00
57628;BME280;43451;49.060;10.616;2022-09-11T08:35:19;96961.94;;;15.21;100.00
57628;BME280;43451;49.060;10.616;2022-09-11T08:37:44;96952.13;;;15.24;100.00
57628;BME280;43451;49.060;10.616;2022-09-11T08:40:10;96964.19;;;15.26;100.00
57628;BME280;43451;49.060;10.616;2022-09-11T08:42:40;96954.41;;;15.25;100.00
57628;BME280;43451;49.060;10.616;2022-09-11T08:45:13;96959.13;;;15.25;100.00
57628;BME280;43451;49.060;10.616;2022-09-11T08:47:40;96965.91;;;15.17;100.00
57628;BME280;43451;49.060;10.616;2022-09-11T08:50:23;96964.91;;;15.07;100.00
57628;BME280;43451;49.060;10.616;2022-09-11T08:52:49;96964.47;;;15.08;100.00
57628;BME280;43451;49.060;10.616;2022-09-11T08:55:29;96975.47;;;15.05;100.00
57628;BME280;43451;49.060;10.616;2022-09-11T08:58:03;96978.59;;;15.07;100.00
57628;BME280;43451;49.060;10.616;2022-09-11T09:00:41;96976.69;;;15.04;100.00
57628;BME280;43451;49.060;10.616;2022-09-11T09:04:24;96976.94;;;15.13;100.00
57628;BME280;43451;49.060;10.616;2022-09-11T09:06:32;96988.78;;;15.03;100.00
57628;BME280;43451;49.060;10.616;2022-09-11T09:11:43;96981.59;;;15.13;100.00
57628;BME280;43451;49.060;10.616;2022-09-11T09:17:16;96987.69;;;15.24;100.00
57628;BME280;43451;49.060;10.616;2022-09-11T09:25:08;96990.19;;;15.62;100.00
57628;BME280;43451;49.060;10.616;2022-09-11T09:27:41;96999.38;;;15.51;100.00
57628;BME280;43451;49.060;10.616;2022-09-11T09:30:14;96993.47;;;15.53;100.00
57628;BME280;43451;49.060;10.616;2022-09-11T09:32:49;97002.19;;;15.48;100.00
57628;BME280;43451;49.060;10.616;2022-09-11T09:35:40;96999.06;;;15.46;100.00
57628;BME280;43451;49.060;10.616;2022-09-11T09:38:17;96988.06;;;15.49;100.00
57628;BME280;43451;49.060;10.616;2022-09-11T09:41:05;96999.31;;;15.55;100.00
57628;BME280;43451;49.060;10.616;2022-09-11T09:44:05;97000.63;;;15.47;100.00
57628;BME280;43451;49.060;10.616;2022-09-11T09:46:42;97006.09;;;15.47;100.00
57628;BME280;43451;49.060;10.616;2022-09-11T09:49:23;97008.00;;;15.50;100.00
57628;BME280;43451;49.060;10.616;2022-09-11T09:51:57;97007.53;;;15.55;100.00
57628;BME280;43451;49.060;10.616;2022-09-11T09:54:24;97008.94;;;15.63;100.00
57628;BME280;43451;49.060;10.616;2022-09-11T09:57:03;97010.47;;;15.68;100.00
57628;BME280;43451;49.060;10.616;2022-09-11T09:59:38;97001.81;;;15.69;100.00
57628;BME280;43451;49.060;10.616;2022-09-11T10:02:04;97005.28;;;15.73;100.00
57628;BME280;43451;49.060;10.616;2022-09-11T10:04:30;97000.16;;;15.75;100.00
57628;BME280;43451;49.060;10.616;2022-09-11T10:07:07;97003.31;;;15.74;100.00
57628;BME280;43451;49.060;10.616;2022-09-11T10:09:35;97002.88;;;15.99;100.00
57628;BME280;43451;49.060;10.616;2022-09-11T10:12:06;97004.03;;;15.98;100.00
57628;BME280;43451;49.060;10.616;2022-09-11T10:15:00;96999.63;;;16.04;100.00
57628;BME280;43451;49.060;10.616;2022-09-11T10:17:31;97002.19;;;16.35;100.00
57628;BME280;43451;49.060;10.616;2022-09-11T10:20:15;96995.63;;;16.29;100.00
57628;BME280;43451;49.060;10.616;2022-09-11T10:22:44;96998.88;;;16.23;100.00
57628;BME280;43451;49.060;10.616;2022-09-11T10:25:25;97002.81;;;16.22;100.00
57628;BME280;43451;49.060;10.616;2022-09-11T10:28:12;97004.31;;;16.27;100.00
57628;BME280;43451;49.060;10.616;2022-09-11T10:30:55;97003.50;;;16.27;100.00
57628;BME280;43451;49.060;10.616;2022-09-11T10:33:34;97010.75;;;16.37;100.00
57628;BME280;43451;49.060;10.616;2022-09-11T10:36:04;97016.47;;;16.46;100.00
57628;BME280;43451;49.060;10.616;2022-09-11T10:43:57;97014.06;;;16.28;100.00
57628;BME280;43451;49.060;10.616;2022-09-11T10:46:35;97009.84;;;16.43;100.00
57628;BME280;43451;49.060;10.616;2022-09-11T10:51:29;97011.88;;;16.59;99.43
57628;BME280;43451;49.060;10.616;2022-09-11T10:56:21;97016.69;;;16.91;99.39
57628;BME280;43451;49.060;10.616;2022-09-11T10:58:49;97007.53;;;17.14;95.71
57628;BME280;43451;49.060;10.616;2022-09-11T11:01:17;97007.91;;;17.16;94.71
57628;BME280;43451;49.060;10.616;2022-09-11T11:03:42;97009.03;;;17.19;96.44
57628;BME280;43451;49.060;10.616;2022-09-11T11:06:48;97024.47;;;17.29;92.16
57628;BME280;43451;49.060;10.616;2022-09-11T11:09:49;97012.94;;;17.18;95.58
57628;BME280;43451;49.060;10.616;2022-09-11T11:12:25;97016.63;;;17.28;93.71
57628;BME280;43451;49.060;10.616;2022-09-11T11:21:04;97022.78;;;16.99;95.32
57628;BME280;43451;49.060;10.616;2022-09-11T11:23:49;97019.59;;;16.84;98.08
57628;BME280;43451;49.060;10.616;2022-09-11T11:32:19;97021.09;;;16.29;100.00
57628;BME280;43451;49.060;10.616;2022-09-11T11:37:31;97026.63;;;16.25;100.00
57628;BME280;43451;49.060;10.616;2022-09-11T11:42:33;97026.41;;;16.36;100.00
57628;BME280;43451;49.060;10.616;2022-09-11T11:47:45;97023.81;;;16.69;100.00
57628;BME280;43451;49.060;10.616;2022-09-11T11:50:23;97020.94;;;16.76;100.00
57628;BME280;43451;49.060;10.616;2022-09-11T11:55:28;97028.28;;;16.99;100.00
57628;BME280;43451;49.060;10.616;2022-09-11T11:57:59;97027.38;;;17.22;100.00
57628;BME280;43451;49.060;10.616;2022-09-11T12:00:32;97033.38;;;17.50;100.00
57628;BME280;43451;49.060;10.616;2022-09-11T12:03:14;97028.50;;;17.57;100.00
57628;BME280;43451;49.060;10.616;2022-09-11T12:05:42;97038.44;;;17.68;100.00
57628;BME280;43451;49.060;10.616;2022-09-11T12:08:12;97027.28;;;17.75;100.00
57628;BME280;43451;49.060;10.616;2022-09-11T12:10:43;97035.97;;;17.90;95.99
57628;BME280;43451;49.060;10.616;2022-09-11T12:13:15;97040.06;;;17.98;86.67
57628;BME280;43451;49.060;10.616;2022-09-11T12:16:04;97030.13;;;18.17;92.13
57628;BME280;43451;49.060;10.616;2022-09-11T12:18:31;97035.38;;;18.27;91.99
57628;BME280;43451;49.060;10.616;2022-09-11T12:26:22;97030.22;;;18.13;90.36
57628;BME280;43451;49.060;10.616;2022-09-11T12:28:49;97034.03;;;18.32;84.52
57628;BME280;43451;49.060;10.616;2022-09-11T12:34:22;97033.28;;;18.02;88.91
57628;BME280;43451;49.060;10.616;2022-09-11T12:37:04;97026.34;;;17.81;92.98
57628;BME280;43451;49.060;10.616;2022-09-11T12:39:49;97026.25;;;17.85;94.24
57628;BME280;43451;49.060;10.616;2022-09-11T12:47:18;97015.81;;;17.80;95.15
57628;BME280;43451;49.060;10.616;2022-09-11T12:52:56;97023.50;;;17.69;95.29
57628;BME280;43451;49.060;10.616;2022-09-11T12:55:39;97016.13;;;17.82;89.07
57628;BME280;43451;49.060;10.616;2022-09-11T13:00:43;97016.91;;;17.82;94.41
57628;BME280;43451;49.060;10.616;2022-09-11T13:05:40;97021.25;;;17.96;92.10
57628;BME280;43451;49.060;10.616;2022-09-11T13:08:18;97018.16;;;17.94;93.53
57628;BME280;43451;49.060;10.616;2022-09-11T13:10:48;97020.75;;;17.85;92.37
57628;BME280;43451;49.060;10.616;2022-09-11T13:16:25;97010.00;;;17.91;92.39
57628;BME280;43451;49.060;10.616;2022-09-11T13:19:16;97010.66;;;18.11;91.79
57628;BME280;43451;49.060;10.616;2022-09-11T13:21:43;97008.03;;;18.20;88.59
57628;BME280;43451;49.060;10.616;2022-09-11T13:24:33;97001.75;;;18.20;88.66
57628;BME280;43451;49.060;10.616;2022-09-11T13:27:06;97003.50;;;18.14;88.41
57628;BME280;43451;49.060;10.616;2022-09-11T13:29:34;97008.25;;;18.13;91.12
57628;BME280;43451;49.060;10.616;2022-09-11T13:32:14;97000.91;;;18.23;93.35
57628;BME280;43451;49.060;10.616;2022-09-11T13:34:49;97003.59;;;18.39;90.42
57628;BME280;43451;49.060;10.616;2022-09-11T13:40:03;96990.50;;;18.43;86.24
57628;BME280;43451;49.060;10.616;2022-09-11T13:42:30;96990.28;;;18.38;85.16
57628;BME280;43451;49.060;10.616;2022-09-11T13:44:57;96998.78;;;18.43;80.08
57628;BME280;43451;49.060;10.616;2022-09-11T13:47:25;96998.06;;;18.39;79.46
57628;BME280;43451;49.060;10.616;2022-09-11T13:49:58;96989.81;;;18.39;79.40
57628;BME280;43451;49.060;10.616;2022-09-11T13:52:27;96990.03;;;18.32;86.03
57628;BME280;43451;49.060;10.616;2022-09-11T13:54:56;96991.91;;;18.35;79.86
57628;BME280;43451;49.060;10.616;2022-09-11T13:57:24;96998.38;;;18.28;83.53
57628;BME280;43451;49.060;10.616;2022-09-11T13:59:53;96993.72;;;18.13;91.22
57628;BME280;43451;49.060;10.616;2022-09-11T14:05:24;96990.81;;;18.03;87.03
57628;BME280;43451;49.060;10.616;2022-09-11T14:08:03;97000.22;;;17.90;84.68
57628;BME280;43451;49.060;10.616;2022-09-11T14:10:50;96995.44;;;17.77;89.25
57628;BME280;43451;49.060;10.616;2022-09-11T14:16:07;96986.75;;;17.95;83.81
57628;BME280;43451;49.060;10.616;2022-09-11T14:19:07;96983.13;;;17.82;87.78
57628;BME280;43451;49.060;10.616;2022-09-11T14:21:39;96983.25;;;17.78;89.44
57628;BME280;43451;49.060;10.616;2022-09-11T14:24:27;96986.91;;;17.72;88.59
57628;BME280;43451;49.060;10.616;2022-09-11T14:27:42;96987.38;;;17.70;90.27
57628;BME280;43451;49.060;10.616;2022-09-11T14:29:51;96988.13;;;17.71;91.69
57628;BME280;43451;49.060;10.616;2022-09-11T14:32:34;96981.59;;;17.64;91.33
57628;BME280;43451;49.060;10.616;2022-09-11T14:35:02;96986.44;;;17.60;89.63
57628;BME280;43451;49.060;10.616;2022-09-11T14:37:30;96985.88;;;17.66;90.12
57628;BME280;43451;49.060;10.616;2022-09-11T14:40:00;96979.69;;;17.94;83.42
57628;BME280;43451;49.060;10.616;2022-09-11T14:42:31;96983.25;;;17.78;88.64
57628;BME280;43451;49.060;10.616;2022-09-11T14:44:58;96977.63;;;17.82;89.47
57628;BME280;43451;49.060;10.616;2022-09-11T14:47:26;96979.69;;;17.94;86.76
57628;BME280;43451;49.060;10.616;2022-09-11T14:49:53;96977.75;;;18.07;88.82